createdAt,value
2019-05-17T00:01:09.577Z,82.10
2019-05-17T00:03:39.833Z,81.90
2019-05-17T00:06:10.651Z,81.90
2019-05-17T00:08:40.971Z,81.80
2019-05-17T00:11:11.141Z,81.60
2019-05-17T00:13:41.706Z,81.50
2019-05-17T00:16:12.095Z,81.20
2019-05-17T00:18:42.358Z,81.20
2019-05-17T00:21:12.988Z,81.10
2019-05-17T00:23:43.299Z,80.90
2019-05-17T00:26:13.521Z,80.90
2019-05-17T00:28:43.728Z,80.70
2019-05-17T00:31:14.243Z,80.60
2019-05-17T00:33:44.570Z,80.30
2019-05-17T00:36:17.620Z,80.20
2019-05-17T00:38:50.952Z,80.00
2019-05-17T00:41:18.556Z,80.00
2019-05-17T00:43:49.261Z,79.90
2019-05-17T00:46:19.488Z,79.90
2019-05-17T00:48:49.742Z,79.70
2019-05-17T00:51:20.124Z,79.60
2019-05-17T00:53:50.376Z,79.50
2019-05-17T00:56:20.709Z,79.30
2019-05-17T00:58:51.152Z,79.40
2019-05-17T01:01:21.434Z,79.10
2019-05-17T01:03:51.788Z,79.10
2019-05-17T01:06:22.600Z,78.90
2019-05-17T01:09:01.025Z,78.70
2019-05-17T01:11:27.081Z,78.60
2019-05-17T01:13:58.729Z,78.40
2019-05-17T01:16:30.924Z,78.40
2019-05-17T01:19:01.299Z,78.30
2019-05-17T01:21:31.844Z,77.80
2019-05-17T01:24:02.284Z,77.70
2019-05-17T01:26:32.907Z,77.50
2019-05-17T01:29:06.564Z,77.20
2019-05-17T01:31:37.351Z,77.10
2019-05-17T01:34:07.817Z,77.00
2019-05-17T01:36:38.307Z,76.80
2019-05-17T01:39:17.309Z,76.50
2019-05-17T01:41:40.444Z,76.20
2019-05-17T01:44:11.047Z,76.30
2019-05-17T01:46:42.685Z,75.40
2019-05-17T01:49:12.986Z,75.20
2019-05-17T01:51:43.198Z,75.00
2019-05-17T01:54:13.712Z,74.20
2019-05-17T01:56:45.892Z,74.50
2019-05-17T01:59:17.284Z,74.10
2019-05-17T02:01:48.904Z,73.30
2019-05-17T02:04:19.373Z,73.10
2019-05-17T02:06:50.465Z,73.60
2019-05-17T02:09:34.771Z,72.20
2019-05-17T02:11:57.070Z,72.30
2019-05-17T02:14:26.770Z,72.30
2019-05-17T02:16:57.324Z,72.30
2019-05-17T02:19:28.468Z,72.00
2019-05-17T02:21:58.832Z,72.00
2019-05-17T02:24:29.052Z,70.90
2019-05-17T02:26:59.156Z,70.90
2019-05-17T02:29:32.038Z,69.90
2019-05-17T02:32:03.829Z,69.90
2019-05-17T02:34:33.789Z,70.40
2019-05-17T02:37:04.410Z,70.40
2019-05-17T02:39:51.839Z,70.00
2019-05-17T02:42:06.591Z,70.00
2019-05-17T02:44:36.883Z,69.90
2019-05-17T02:47:07.413Z,69.90
2019-05-17T02:49:38.020Z,69.80
2019-05-17T02:52:08.224Z,69.70
2019-05-17T02:54:38.582Z,69.10
2019-05-17T02:59:39.225Z,67.40
2019-05-17T03:02:12.332Z,68.30
2019-05-17T03:04:43.217Z,68.10
2019-05-17T03:07:14.083Z,67.80
2019-05-17T03:09:44.611Z,67.40
2019-05-17T03:12:15.300Z,67.50
2019-05-17T03:14:45.945Z,66.80
2019-05-17T03:17:16.524Z,66.30
2019-05-17T03:19:46.845Z,66.50
2019-05-17T03:22:17.280Z,66.40
2019-05-17T03:24:47.572Z,65.80
2019-05-17T03:27:17.914Z,64.90
2019-05-17T03:29:48.351Z,65.00
2019-05-17T03:32:19.080Z,65.00
2019-05-17T03:34:55.332Z,65.50
2019-05-17T03:37:30.077Z,65.70
2019-05-17T03:39:53.769Z,65.60
2019-05-17T03:42:24.007Z,65.60
2019-05-17T03:44:54.950Z,65.10
2019-05-17T03:47:25.174Z,64.70
2019-05-17T03:49:55.402Z,64.20
2019-05-17T03:52:25.886Z,64.50
2019-05-17T03:54:56.515Z,64.30
2019-05-17T03:57:26.924Z,64.30
2019-05-17T03:59:57.224Z,64.10
2019-05-17T04:02:27.800Z,63.90
2019-05-17T04:04:58.020Z,62.60
2019-05-17T04:07:28.330Z,62.90
2019-05-17T04:09:58.516Z,62.70
2019-05-17T04:12:28.746Z,62.60
2019-05-17T04:15:03.190Z,62.40
2019-05-17T04:17:32.805Z,62.40
2019-05-17T04:20:03.877Z,61.40
2019-05-17T04:22:35.936Z,62.00
2019-05-17T04:25:06.673Z,61.60
2019-05-17T04:27:37.607Z,61.40
2019-05-17T04:30:12.362Z,61.70
2019-05-17T04:32:45.374Z,60.40
2019-05-17T04:35:18.027Z,60.00
2019-05-17T04:37:52.810Z,60.10
2019-05-17T04:40:23.081Z,60.40
2019-05-17T04:42:55.860Z,60.50
2019-05-17T04:45:27.050Z,60.40
2019-05-17T04:47:58.459Z,60.10
2019-05-17T04:50:33.248Z,59.60
2019-05-17T04:53:03.759Z,59.90
2019-05-17T04:55:37.716Z,59.10
2019-05-17T04:58:13.438Z,59.40
2019-05-17T05:00:44.788Z,59.20
2019-05-17T05:03:16.823Z,59.20
2019-05-17T05:07:22.507Z,59.10
2019-05-17T05:09:52.537Z,58.30
2019-05-17T05:12:23.069Z,57.70
2019-05-17T05:14:53.749Z,58.30
2019-05-17T05:17:23.908Z,58.10
2019-05-17T05:19:54.189Z,57.80
2019-05-17T05:22:24.682Z,57.60
2019-05-17T05:24:55.051Z,56.80
2019-05-17T05:27:25.415Z,57.00
2019-05-17T05:29:55.921Z,56.30
2019-05-17T05:32:26.155Z,56.30
2019-05-17T05:34:56.518Z,56.80
2019-05-17T05:37:26.887Z,57.10
2019-05-17T05:39:57.214Z,56.70
2019-05-17T05:42:27.707Z,55.70
2019-05-17T05:44:58.009Z,56.40
2019-05-17T05:47:28.513Z,56.80
2019-05-17T05:49:58.888Z,56.10
2019-05-17T05:52:28.935Z,56.30
2019-05-17T05:55:01.371Z,56.40
2019-05-17T05:57:32.178Z,56.80
2019-05-17T06:00:02.555Z,56.80
2019-05-17T06:02:32.941Z,56.90
2019-05-17T06:05:03.546Z,57.10
2019-05-17T06:07:34.090Z,57.10
2019-05-17T06:10:04.315Z,56.60
2019-05-17T06:12:34.643Z,55.50
2019-05-17T06:15:06.730Z,56.20
2019-05-17T06:17:37.173Z,56.20
2019-05-17T06:20:08.409Z,56.10
2019-05-17T06:22:38.619Z,55.90
2019-05-17T06:25:09.283Z,55.90
2019-05-17T06:27:41.545Z,55.90
2019-05-17T06:30:14.943Z,55.80
2019-05-17T06:32:46.796Z,55.40
2019-05-17T06:35:17.385Z,54.20
2019-05-17T06:37:47.943Z,54.60
2019-05-17T06:40:18.434Z,54.60
2019-05-17T06:42:49.077Z,55.80
2019-05-17T06:45:21.935Z,55.20
2019-05-17T06:47:51.948Z,55.30
2019-05-17T06:50:23.646Z,55.50
2019-05-17T06:52:54.244Z,55.40
2019-05-17T06:55:24.681Z,55.50
2019-05-17T06:57:54.985Z,55.40
2019-05-17T07:00:26.344Z,55.60
2019-05-17T07:02:57.053Z,55.60
2019-05-17T07:05:29.338Z,55.40
2019-05-17T07:08:00.319Z,55.00
2019-05-17T07:10:31.469Z,55.00
2019-05-17T07:13:02.130Z,55.30
2019-05-17T07:15:43.685Z,55.50
2019-05-17T07:18:04.854Z,55.60
2019-05-17T07:20:35.257Z,55.60
2019-05-17T07:23:06.206Z,55.50
2019-05-17T07:25:36.780Z,55.50
2019-05-17T07:28:09.765Z,55.50
2019-05-17T07:30:39.966Z,55.50
2019-05-17T07:33:11.023Z,55.50
2019-05-17T07:35:41.467Z,55.40
2019-05-17T07:38:12.188Z,55.00
2019-05-17T07:40:43.839Z,55.00
2019-05-17T07:43:14.992Z,54.90
2019-05-17T07:45:45.601Z,54.80
2019-05-17T07:48:16.042Z,54.90
2019-05-17T07:50:46.785Z,55.00
2019-05-17T07:53:19.786Z,55.00
2019-05-17T07:55:50.592Z,55.20
2019-05-17T07:58:21.360Z,55.30
2019-05-17T08:00:51.879Z,55.20
2019-05-17T08:03:24.704Z,55.10
2019-05-17T08:05:59.999Z,55.00
2019-05-17T08:08:31.353Z,55.00
2019-05-17T08:11:02.013Z,55.00
2019-05-17T08:13:33.800Z,54.90
2019-05-17T08:16:04.324Z,54.80
2019-05-17T08:18:34.510Z,54.80
2019-05-17T08:21:06.242Z,54.30
2019-05-17T08:23:36.365Z,54.00
2019-05-17T08:26:06.917Z,53.80
2019-05-17T08:28:42.801Z,53.70
2019-05-17T08:31:13.340Z,53.60
2019-05-17T08:33:44.088Z,53.70
2019-05-17T08:36:14.355Z,54.50
2019-05-17T08:38:44.844Z,54.10
2019-05-17T08:41:15.046Z,54.20
2019-05-17T08:43:47.086Z,54.30
2019-05-17T08:46:19.925Z,54.30
2019-05-17T08:48:55.440Z,54.60
2019-05-17T08:53:07.091Z,54.70
2019-05-17T08:55:37.554Z,54.70
2019-05-17T08:58:10.278Z,54.40
2019-05-17T09:00:40.940Z,54.30
2019-05-17T09:03:11.523Z,54.50
2019-05-17T09:08:20.323Z,53.70
2019-05-17T09:10:50.442Z,53.30
2019-05-17T09:13:20.970Z,53.50
2019-05-17T09:15:51.859Z,53.30
2019-05-17T09:18:22.206Z,53.10
2019-05-17T09:20:53.027Z,53.00
2019-05-17T09:23:23.459Z,52.80
2019-05-17T09:25:56.181Z,52.70
2019-05-17T09:28:26.676Z,52.70
2019-05-17T09:30:59.681Z,52.80
2019-05-17T09:33:30.050Z,52.80
2019-05-17T09:36:01.085Z,52.80
2019-05-17T09:38:33.600Z,53.40
2019-05-17T09:41:04.575Z,52.70
2019-05-17T09:43:42.513Z,52.70
2019-05-17T09:46:13.827Z,52.70
2019-05-17T09:48:46.991Z,52.70
2019-05-17T09:51:16.579Z,52.20
2019-05-17T09:53:49.392Z,52.40
2019-05-17T09:56:20.684Z,52.50
2019-05-17T09:58:51.162Z,52.20
2019-05-17T10:01:21.990Z,52.70
2019-05-17T10:03:52.921Z,52.90
2019-05-17T10:06:23.493Z,52.40
2019-05-17T10:09:09.882Z,52.70
2019-05-17T10:11:40.503Z,52.20
2019-05-17T10:14:24.685Z,52.70
2019-05-17T10:16:42.498Z,52.70
2019-05-17T10:21:43.783Z,52.20
2019-05-17T10:24:14.797Z,52.70
2019-05-17T10:26:45.949Z,52.60
2019-05-17T10:29:18.575Z,52.40
2019-05-17T10:34:17.292Z,52.40
2019-05-17T10:36:50.528Z,52.40
2019-05-17T10:39:19.441Z,52.40
2019-05-17T10:41:50.049Z,52.50
2019-05-17T10:44:20.462Z,52.30
2019-05-17T10:47:01.343Z,52.40
2019-05-17T10:49:49.770Z,52.50
2019-05-17T10:52:20.444Z,52.60
2019-05-17T10:55:55.020Z,52.60
2019-05-17T10:58:39.746Z,52.40
2019-05-17T11:01:10.385Z,52.90
2019-05-17T11:03:40.777Z,52.90
2019-05-17T11:06:11.136Z,53.20
2019-05-17T11:08:41.907Z,53.30
2019-05-17T11:11:12.433Z,53.60
2019-05-17T11:13:42.630Z,53.70
2019-05-17T11:16:13.012Z,54.00
2019-05-17T11:18:43.447Z,54.10
2019-05-17T11:21:13.750Z,54.40
2019-05-17T11:23:44.103Z,55.40
2019-05-17T11:26:14.432Z,54.90
2019-05-17T11:28:44.792Z,55.10
2019-05-17T11:31:15.115Z,55.30
2019-05-17T11:33:45.403Z,55.60
2019-05-17T11:36:15.939Z,55.70
2019-05-17T11:38:46.313Z,55.90
2019-05-17T11:41:21.757Z,56.10
2019-05-17T11:43:48.958Z,56.20
2019-05-17T11:46:19.246Z,56.50
2019-05-17T11:48:49.315Z,56.70
2019-05-17T11:51:19.710Z,56.80
2019-05-17T11:53:50.109Z,57.10
2019-05-17T11:56:20.417Z,57.00
2019-05-17T11:58:50.920Z,57.20
2019-05-17T12:01:21.225Z,57.40
2019-05-17T12:03:51.479Z,57.50
2019-05-17T12:06:22.134Z,57.60
2019-05-17T12:08:52.583Z,57.80
2019-05-17T12:11:22.724Z,57.90
2019-05-17T12:13:53.202Z,57.90
2019-05-17T12:16:23.365Z,58.00
2019-05-17T12:18:53.813Z,58.10
2019-05-17T12:21:24.158Z,58.10
2019-05-17T12:23:54.447Z,58.20
2019-05-17T12:26:25.086Z,58.20
2019-05-17T12:28:55.148Z,58.30
2019-05-17T12:31:25.737Z,58.40
2019-05-17T12:33:55.952Z,58.40
2019-05-17T12:36:26.418Z,58.50
2019-05-17T12:38:56.797Z,58.60
2019-05-17T12:41:27.126Z,58.80
2019-05-17T12:43:57.235Z,58.90
2019-05-17T12:46:27.776Z,59.00
2019-05-17T12:48:58.028Z,59.10
2019-05-17T12:51:28.243Z,59.20
2019-05-17T12:53:58.605Z,59.20
2019-05-17T12:56:28.916Z,59.20
2019-05-17T12:58:59.510Z,59.30
2019-05-17T13:01:29.847Z,59.30
2019-05-17T13:04:00.213Z,59.40
2019-05-17T13:06:30.738Z,59.50
2019-05-17T13:09:01.147Z,59.60
2019-05-17T13:11:31.704Z,59.70
2019-05-17T13:14:02.194Z,59.80
2019-05-17T13:16:32.595Z,59.80
2019-05-17T13:19:02.832Z,59.90
2019-05-17T13:21:33.248Z,60.00
2019-05-17T13:24:03.596Z,60.10
2019-05-17T13:26:33.791Z,60.20
2019-05-17T13:29:04.362Z,60.30
2019-05-17T13:31:34.580Z,60.30
2019-05-17T13:34:05.011Z,60.50
2019-05-17T13:36:35.406Z,60.50
2019-05-17T13:39:07.950Z,60.60
2019-05-17T13:41:38.152Z,60.60
2019-05-17T13:44:09.350Z,60.80
2019-05-17T13:46:39.763Z,60.80
2019-05-17T13:49:10.246Z,60.80
2019-05-17T13:51:40.437Z,61.00
2019-05-17T13:54:10.688Z,61.00
2019-05-17T13:57:28.630Z,61.00
2019-05-17T13:59:58.965Z,61.10
2019-05-17T14:02:29.290Z,61.20
2019-05-17T14:04:59.644Z,61.20
2019-05-17T14:07:29.822Z,61.30
2019-05-17T14:10:00.144Z,61.40
2019-05-17T14:12:30.409Z,61.50
2019-05-17T14:15:00.825Z,61.50
2019-05-17T14:20:00.973Z,61.10
2019-05-17T14:22:31.281Z,61.90
2019-05-17T14:25:01.524Z,62.00
2019-05-17T14:29:49.623Z,62.10
2019-05-17T14:32:20.028Z,62.20
2019-05-17T14:34:50.347Z,62.40
2019-05-17T14:37:20.588Z,62.40
2019-05-17T14:39:50.778Z,62.50
2019-05-17T14:42:21.428Z,62.60
2019-05-17T14:44:51.794Z,62.60
2019-05-17T14:47:22.524Z,62.80
2019-05-17T14:49:52.883Z,62.80
2019-05-17T14:52:23.190Z,62.70
2019-05-17T14:54:53.410Z,63.00
2019-05-17T14:57:23.754Z,63.00
2019-05-17T14:59:54.269Z,63.00
2019-05-17T15:02:24.583Z,63.30
2019-05-17T15:08:16.993Z,62.30
2019-05-17T15:10:47.499Z,63.10
2019-05-17T15:13:17.862Z,63.00
2019-05-17T15:15:48.223Z,63.20
2019-05-17T15:18:18.582Z,63.20
2019-05-17T15:20:49.026Z,63.30
2019-05-17T15:23:19.195Z,63.40
2019-05-17T15:25:49.568Z,63.60
2019-05-17T15:28:19.843Z,63.90
2019-05-17T15:30:50.167Z,64.00
2019-05-17T15:33:20.356Z,64.20
2019-05-17T15:35:50.651Z,64.30
2019-05-17T15:38:20.899Z,64.40
2019-05-17T15:40:51.319Z,64.60
2019-05-17T15:43:22.093Z,64.60
2019-05-17T15:45:52.627Z,64.70
2019-05-17T15:48:23.005Z,64.90
2019-05-17T15:50:53.301Z,64.90
2019-05-17T15:53:23.764Z,65.00
2019-05-17T15:55:54.166Z,65.00
2019-05-17T15:58:24.591Z,65.20
2019-05-17T16:00:54.899Z,65.20
2019-05-17T16:03:25.023Z,65.30
2019-05-17T16:05:55.507Z,65.40
2019-05-17T16:08:25.789Z,65.40
2019-05-17T16:10:56.324Z,65.50
2019-05-17T16:13:26.802Z,65.70
2019-05-17T16:15:57.114Z,65.80
2019-05-17T16:18:27.539Z,65.90
2019-05-17T16:20:57.822Z,65.90
2019-05-17T16:23:28.259Z,66.10
2019-05-17T16:25:58.773Z,66.10
2019-05-17T16:28:29.082Z,66.20
2019-05-17T16:30:59.550Z,66.30
2019-05-17T16:33:29.810Z,66.40
2019-05-17T16:36:00.191Z,66.50
2019-05-17T16:38:30.342Z,66.60
2019-05-17T16:41:00.643Z,66.70
2019-05-17T16:43:31.089Z,66.70
2019-05-17T16:46:01.830Z,66.90
2019-05-17T16:48:32.043Z,67.00
2019-05-17T16:51:02.428Z,67.00
2019-05-17T16:53:32.712Z,67.20
2019-05-17T16:56:02.897Z,67.30
2019-05-17T16:58:33.198Z,67.50
2019-05-17T17:01:03.812Z,67.50
2019-05-17T17:03:43.678Z,67.60
2019-05-17T17:06:05.907Z,67.70
2019-05-17T17:08:36.874Z,67.80
2019-05-17T17:11:07.291Z,68.10
2019-05-17T17:13:37.416Z,68.10
2019-05-17T17:16:07.612Z,68.20
2019-05-17T17:18:37.974Z,68.20
2019-05-17T17:21:08.487Z,68.30
2019-05-17T17:23:38.826Z,68.50
2019-05-17T17:26:09.274Z,68.60
2019-05-17T17:28:39.557Z,68.80
2019-05-17T17:31:12.420Z,68.80
2019-05-17T17:33:42.877Z,68.90
2019-05-17T17:36:13.149Z,69.10
2019-05-17T17:38:43.428Z,69.10
2019-05-17T17:41:13.791Z,69.30
2019-05-17T17:43:57.454Z,69.30
2019-05-17T17:46:15.885Z,69.60
2019-05-17T17:48:46.674Z,69.60
2019-05-17T17:51:17.194Z,69.50
2019-05-17T17:53:47.609Z,69.70
2019-05-17T17:56:17.846Z,69.70
2019-05-17T17:58:48.251Z,69.80
2019-05-17T18:01:18.606Z,70.00
2019-05-17T18:03:48.886Z,70.10
2019-05-17T18:06:19.217Z,70.10
2019-05-17T18:08:49.638Z,70.10
2019-05-17T18:11:19.858Z,70.20
2019-05-17T18:13:50.147Z,70.40
2019-05-17T18:16:20.690Z,70.40
2019-05-17T18:18:50.935Z,70.50
2019-05-17T18:21:21.222Z,70.50
2019-05-17T18:23:51.597Z,70.60
2019-05-17T18:26:21.902Z,71.50
2019-05-17T18:28:52.434Z,70.90
2019-05-17T18:31:22.550Z,70.90
2019-05-17T18:33:53.020Z,71.10
2019-05-17T18:36:23.565Z,71.10
2019-05-17T18:38:56.063Z,71.20
2019-05-17T18:41:26.434Z,71.30
2019-05-17T18:43:56.677Z,71.40
2019-05-17T18:46:27.406Z,71.50
2019-05-17T18:48:57.692Z,71.70
2019-05-17T18:51:27.966Z,71.70
2019-05-17T18:53:58.666Z,71.90
2019-05-17T18:56:29.017Z,71.90
2019-05-17T18:58:59.390Z,72.00
2019-05-17T19:01:32.434Z,72.10
2019-05-17T19:04:02.882Z,72.20
2019-05-17T19:06:33.323Z,72.30
2019-05-17T19:09:04.410Z,72.40
2019-05-17T19:11:34.797Z,72.40
2019-05-17T19:14:05.333Z,72.60
2019-05-17T19:16:35.746Z,72.50
2019-05-17T19:19:05.833Z,72.60
2019-05-17T19:21:36.028Z,72.70
2019-05-17T19:24:06.427Z,72.70
2019-05-17T19:26:36.749Z,72.70
2019-05-17T19:29:07.615Z,72.80
2019-05-17T19:31:37.976Z,73.00
2019-05-17T19:34:08.181Z,72.90
2019-05-17T19:36:41.367Z,73.00
2019-05-17T19:39:10.132Z,73.00
2019-05-17T19:41:40.457Z,73.10
2019-05-17T19:44:10.660Z,73.10
2019-05-17T19:46:41.018Z,73.20
2019-05-17T19:49:11.292Z,73.30
2019-05-17T19:51:41.586Z,73.30
2019-05-17T19:54:12.037Z,73.40
2019-05-17T19:56:42.441Z,73.40
2019-05-17T19:59:12.526Z,73.40
2019-05-17T20:01:42.938Z,73.40
2019-05-17T20:04:13.297Z,73.60
2019-05-17T20:06:43.567Z,73.60
2019-05-17T20:09:13.926Z,73.60
2019-05-17T20:11:44.343Z,73.80
2019-05-17T20:14:14.736Z,73.80
2019-05-17T20:16:44.855Z,73.90
2019-05-17T20:19:15.220Z,73.90
2019-05-17T20:21:45.644Z,74.00
2019-05-17T20:24:15.964Z,74.00
2019-05-17T20:26:46.192Z,74.20
2019-05-17T20:29:16.605Z,74.20
2019-05-17T20:31:46.806Z,74.30
2019-05-17T20:34:17.135Z,74.30
2019-05-17T20:36:47.757Z,74.40
2019-05-17T20:39:18.109Z,74.40
2019-05-17T20:41:48.709Z,74.60
2019-05-17T20:44:19.233Z,74.60
2019-05-17T20:46:49.420Z,74.60
2019-05-17T20:49:19.781Z,74.60
2019-05-17T20:51:49.982Z,74.60
2019-05-17T20:54:20.248Z,74.60
2019-05-17T20:56:50.492Z,74.60
2019-05-17T20:59:20.854Z,74.70
2019-05-17T21:01:51.148Z,74.70
2019-05-17T21:04:21.491Z,74.70
2019-05-17T21:06:51.839Z,74.80
2019-05-17T21:09:22.150Z,74.70
2019-05-17T21:11:52.575Z,74.80
2019-05-17T21:14:22.942Z,74.90
2019-05-17T21:16:53.293Z,75.00
2019-05-17T21:19:23.710Z,74.90
2019-05-17T21:21:53.997Z,75.00
2019-05-17T21:24:24.246Z,75.00
2019-05-17T21:26:54.691Z,75.00
2019-05-17T21:29:25.076Z,75.10
2019-05-17T21:31:55.303Z,75.10
2019-05-17T21:34:25.783Z,75.20
2019-05-17T21:36:56.036Z,75.20
2019-05-17T21:39:26.147Z,74.40
2019-05-17T21:41:56.514Z,75.20
2019-05-17T21:44:26.720Z,75.20
2019-05-17T21:47:04.419Z,75.20
2019-05-17T21:49:28.701Z,75.30
2019-05-17T21:51:59.144Z,75.30
2019-05-17T21:54:29.476Z,75.30
2019-05-17T21:56:59.763Z,75.50
2019-05-17T21:59:30.631Z,75.50
2019-05-17T22:02:00.897Z,75.50
2019-05-17T22:04:31.288Z,75.60
2019-05-17T22:07:01.513Z,75.60
2019-05-17T22:09:31.920Z,75.50
2019-05-17T22:12:03.771Z,75.60
2019-05-17T22:14:34.224Z,75.70
2019-05-17T22:17:04.648Z,75.80
2019-05-17T22:19:34.743Z,75.70
2019-05-17T22:22:05.051Z,75.80
2019-05-17T22:24:35.324Z,75.80
2019-05-17T22:27:06.397Z,75.80
2019-05-17T22:29:36.747Z,76.00
2019-05-17T22:32:07.180Z,76.00
2019-05-17T22:34:37.641Z,76.00
2019-05-17T22:37:07.818Z,76.00
2019-05-17T22:39:38.086Z,76.00
2019-05-17T22:42:08.544Z,76.00
2019-05-17T22:44:38.904Z,76.00
2019-05-17T22:47:09.267Z,76.10
2019-05-17T22:49:39.568Z,76.00
2019-05-17T22:52:10.004Z,76.00
2019-05-17T22:54:40.344Z,76.10
2019-05-17T22:57:10.793Z,76.10
2019-05-17T22:59:41.041Z,76.10
2019-05-17T23:02:11.439Z,76.30
2019-05-17T23:04:41.772Z,76.20
2019-05-17T23:07:12.002Z,76.30
2019-05-17T23:09:42.648Z,76.30
2019-05-17T23:12:12.983Z,76.30
2019-05-17T23:14:43.771Z,76.30
2019-05-17T23:17:14.376Z,76.10
2019-05-17T23:19:44.780Z,76.10
2019-05-17T23:22:15.105Z,76.10
2019-05-17T23:24:45.351Z,76.10
2019-05-17T23:27:15.833Z,76.00
2019-05-17T23:29:46.194Z,75.90
2019-05-17T23:32:16.397Z,75.80
2019-05-17T23:34:46.801Z,75.70
2019-05-17T23:37:17.089Z,75.50
2019-05-17T23:39:47.720Z,75.50
2019-05-17T23:42:17.909Z,75.20
2019-05-17T23:44:48.510Z,75.00
2019-05-17T23:47:18.871Z,75.00
2019-05-17T23:49:49.269Z,74.80
2019-05-17T23:52:20.008Z,74.60
2019-05-17T23:54:50.272Z,74.50
2019-05-17T23:57:20.569Z,74.30
2019-05-17T23:59:50.910Z,74.30
